createdAt,value
2017-12-13T00:00:55.363Z,18.37
2017-12-13T00:03:22.831Z,18.53
2017-12-13T00:05:51.088Z,18.30
2017-12-13T00:08:18.551Z,18.43
2017-12-13T00:10:46.003Z,19.87
2017-12-13T00:13:13.482Z,17.43
2017-12-13T00:15:41.721Z,17.23
2017-12-13T00:18:09.175Z,15.93
2017-12-13T00:20:36.662Z,18.70
2017-12-13T00:23:04.921Z,17.97
2017-12-13T00:25:32.397Z,18.13
2017-12-13T00:28:00.644Z,17.37
2017-12-13T00:30:28.108Z,17.67
2017-12-13T00:32:55.627Z,18.10
2017-12-13T00:35:23.074Z,18.50
2017-12-13T00:37:50.546Z,17.93
2017-12-13T00:40:18.057Z,17.70
2017-12-13T00:42:45.518Z,16.97
2017-12-13T00:45:13.766Z,18.80
2017-12-13T00:47:41.271Z,18.10
2017-12-13T00:50:09.489Z,17.00
2017-12-13T00:52:36.954Z,19.73
2017-12-13T00:55:04.480Z,17.97
2017-12-13T00:57:31.956Z,16.60
2017-12-13T00:59:59.434Z,18.13
2017-12-13T01:02:26.936Z,17.73
2017-12-13T01:04:54.398Z,16.20
2017-12-13T01:07:21.883Z,17.70
2017-12-13T01:09:49.342Z,15.87
2017-12-13T01:12:16.807Z,16.23
2017-12-13T01:14:44.279Z,18.67
2017-12-13T01:17:11.734Z,17.30
2017-12-13T01:19:39.204Z,17.40
2017-12-13T01:22:07.460Z,17.33
2017-12-13T01:24:34.927Z,18.17
2017-12-13T01:27:02.419Z,16.07
2017-12-13T01:29:29.908Z,20.30
2017-12-13T01:31:57.458Z,16.37
2017-12-13T01:34:24.918Z,16.53
2017-12-13T01:36:52.423Z,16.40
2017-12-13T01:39:19.889Z,16.17
2017-12-13T01:41:48.127Z,16.50
2017-12-13T01:44:15.626Z,17.00
2017-12-13T01:46:43.875Z,15.07
2017-12-13T01:49:11.338Z,17.30
2017-12-13T01:51:38.816Z,15.23
2017-12-13T01:54:07.135Z,15.07
2017-12-13T01:56:34.608Z,14.47
2017-12-13T01:59:02.061Z,16.27
2017-12-13T02:01:29.514Z,15.47
2017-12-13T02:03:56.993Z,15.00
2017-12-13T02:06:24.458Z,16.03
2017-12-13T02:08:51.931Z,15.77
2017-12-13T02:11:20.168Z,14.63
2017-12-13T02:13:47.694Z,14.00
2017-12-13T02:16:15.168Z,15.70
2017-12-13T02:18:42.620Z,13.20
2017-12-13T02:21:10.087Z,12.87
2017-12-13T02:23:37.550Z,13.83
2017-12-13T02:26:05.030Z,14.07
2017-12-13T02:28:32.498Z,13.70
2017-12-13T02:31:00.719Z,14.07
2017-12-13T02:33:28.195Z,13.77
2017-12-13T02:35:55.694Z,13.77
2017-12-13T02:38:23.915Z,14.63
2017-12-13T02:41:01.265Z,13.90
2017-12-13T02:43:28.741Z,13.93
2017-12-13T02:45:56.206Z,13.80
2017-12-13T02:48:23.694Z,13.97
2017-12-13T02:50:51.183Z,13.50
2017-12-13T02:53:19.407Z,13.13
2017-12-13T02:55:47.799Z,15.10
2017-12-13T02:58:15.295Z,15.33
2017-12-13T03:00:43.600Z,16.60
2017-12-13T03:03:11.087Z,14.80
2017-12-13T03:05:38.543Z,15.43
2017-12-13T03:08:06.023Z,15.90
2017-12-13T03:10:33.513Z,15.90
2017-12-13T03:13:00.966Z,15.90
2017-12-13T03:15:28.443Z,16.33
2017-12-13T03:17:55.926Z,16.90
2017-12-13T03:20:23.383Z,17.10
2017-12-13T03:22:50.844Z,15.97
2017-12-13T03:25:18.319Z,16.00
2017-12-13T03:27:45.791Z,14.80
2017-12-13T03:30:14.021Z,16.60
2017-12-13T03:32:41.510Z,17.03
2017-12-13T03:35:08.971Z,17.33
2017-12-13T03:37:36.422Z,18.70
2017-12-13T03:40:03.888Z,17.10
2017-12-13T03:42:32.113Z,17.80
2017-12-13T03:44:59.577Z,17.20
2017-12-13T03:47:27.063Z,17.53
2017-12-13T03:49:54.517Z,16.07
2017-12-13T03:52:21.982Z,18.00
2017-12-13T03:54:49.465Z,16.30
2017-12-13T03:57:16.939Z,18.87
2017-12-13T03:59:44.445Z,19.00
2017-12-13T04:02:11.923Z,15.60
2017-12-13T04:04:40.158Z,17.57
2017-12-13T04:07:07.618Z,17.43
2017-12-13T04:09:35.090Z,18.23
2017-12-13T04:12:02.546Z,16.73
2017-12-13T04:14:30.015Z,17.23
2017-12-13T04:16:57.480Z,16.67
2017-12-13T04:19:25.696Z,16.47
2017-12-13T04:21:53.187Z,16.20
2017-12-13T04:24:20.658Z,17.27
2017-12-13T04:26:48.114Z,17.40
2017-12-13T04:29:15.659Z,17.90
2017-12-13T04:31:43.117Z,16.40
2017-12-13T04:34:10.594Z,16.00
2017-12-13T04:36:38.879Z,16.63
2017-12-13T04:39:07.102Z,16.40
2017-12-13T04:41:34.577Z,18.10
2017-12-13T04:44:02.059Z,16.60
2017-12-13T04:46:29.515Z,18.17
2017-12-13T04:48:57.752Z,15.40
2017-12-13T04:51:25.215Z,15.50
2017-12-13T04:53:52.715Z,17.23
2017-12-13T04:56:20.955Z,16.43
2017-12-13T04:58:48.418Z,16.87
2017-12-13T05:01:15.886Z,15.53
2017-12-13T05:03:44.115Z,15.30
2017-12-13T05:06:11.574Z,16.40
2017-12-13T05:08:39.046Z,15.63
2017-12-13T05:11:06.502Z,14.80
2017-12-13T05:13:33.994Z,14.90
2017-12-13T05:16:02.234Z,13.20
2017-12-13T05:18:29.754Z,13.93
2017-12-13T05:20:57.982Z,13.60
2017-12-13T05:23:25.455Z,12.80
2017-12-13T05:25:53.703Z,13.47
2017-12-13T05:28:21.171Z,14.30
2017-12-13T05:30:48.651Z,14.70
2017-12-13T05:33:16.966Z,14.50
2017-12-13T05:35:44.450Z,13.60
2017-12-13T05:38:11.909Z,13.60
2017-12-13T05:40:39.368Z,14.27
2017-12-13T05:43:06.836Z,12.70
2017-12-13T05:45:34.300Z,14.63
2017-12-13T05:48:01.762Z,13.37
2017-12-13T05:50:30.006Z,14.27
2017-12-13T05:52:57.475Z,13.13
2017-12-13T05:55:24.938Z,12.90
2017-12-13T05:57:52.420Z,11.37
2017-12-13T06:00:20.652Z,11.70
2017-12-13T06:02:48.115Z,11.87
2017-12-13T06:05:15.599Z,11.30
2017-12-13T06:07:43.822Z,12.70
2017-12-13T06:10:11.295Z,12.60
2017-12-13T06:12:38.762Z,11.90
2017-12-13T06:15:06.228Z,12.67
2017-12-13T06:17:33.714Z,13.10
2017-12-13T06:20:01.978Z,12.40
2017-12-13T06:22:29.480Z,11.60
2017-12-13T06:24:56.946Z,12.47
2017-12-13T06:27:24.416Z,11.73
2017-12-13T06:29:51.871Z,11.60
2017-12-13T06:32:19.342Z,10.67
2017-12-13T06:34:46.798Z,12.00
2017-12-13T06:37:14.266Z,10.40
2017-12-13T06:39:41.718Z,11.63
2017-12-13T06:42:09.182Z,11.30
2017-12-13T06:44:37.424Z,10.50
2017-12-13T06:47:05.062Z,10.70
2017-12-13T06:49:32.523Z,11.40
2017-12-13T06:51:59.990Z,10.20
2017-12-13T06:54:27.454Z,11.47
2017-12-13T06:56:54.941Z,12.00
2017-12-13T06:59:22.394Z,10.93
2017-12-13T07:01:49.857Z,11.00
2017-12-13T07:04:17.339Z,10.00
2017-12-13T07:06:44.869Z,11.37
2017-12-13T07:09:12.306Z,12.03
2017-12-13T07:11:39.798Z,11.87
2017-12-13T07:14:08.035Z,11.17
2017-12-13T07:16:35.506Z,11.03
2017-12-13T07:19:03.021Z,11.40
2017-12-13T07:21:30.478Z,12.37
2017-12-13T07:23:57.949Z,10.73
2017-12-13T07:26:25.431Z,11.63
2017-12-13T07:28:52.894Z,11.77
2017-12-13T07:31:20.379Z,13.30
2017-12-13T07:33:48.611Z,12.90
2017-12-13T07:36:16.079Z,12.30
2017-12-13T07:38:43.550Z,13.57
2017-12-13T07:41:11.780Z,12.17
2017-12-13T07:43:39.240Z,13.57
2017-12-13T07:46:06.716Z,13.63
2017-12-13T07:48:34.172Z,13.87
2017-12-13T07:51:01.639Z,13.57
2017-12-13T07:53:29.102Z,12.67
2017-12-13T07:55:56.567Z,13.00
2017-12-13T07:58:24.795Z,14.77
2017-12-13T08:00:52.266Z,16.17
2017-12-13T08:03:19.731Z,16.70
2017-12-13T08:05:47.205Z,15.20
2017-12-13T08:08:14.670Z,14.40
2017-12-13T08:10:42.907Z,14.53
2017-12-13T08:13:10.379Z,14.30
2017-12-13T08:15:37.836Z,13.43
2017-12-13T08:18:05.302Z,14.23
2017-12-13T08:20:32.781Z,12.90
2017-12-13T08:23:00.990Z,14.23
2017-12-13T08:25:28.463Z,13.87
2017-12-13T08:27:55.947Z,15.67
2017-12-13T08:30:23.404Z,13.60
2017-12-13T08:32:50.899Z,14.60
2017-12-13T08:35:19.122Z,13.30
2017-12-13T08:37:46.576Z,13.03
2017-12-13T08:40:14.048Z,13.03
2017-12-13T08:42:41.516Z,13.73
2017-12-13T08:45:08.966Z,13.70
2017-12-13T08:47:36.434Z,15.73
2017-12-13T08:50:04.698Z,15.27
2017-12-13T08:52:32.111Z,14.40
2017-12-13T08:54:59.600Z,14.03
2017-12-13T08:57:27.058Z,12.77
2017-12-13T08:59:54.527Z,15.17
2017-12-13T09:02:21.994Z,13.50
2017-12-13T09:04:50.215Z,12.57
2017-12-13T09:07:17.676Z,12.30
2017-12-13T09:09:45.142Z,12.13
2017-12-13T09:12:12.607Z,11.07
2017-12-13T09:14:40.075Z,11.33
2017-12-13T09:17:07.540Z,11.43
2017-12-13T09:19:35.002Z,12.40
2017-12-13T09:22:03.247Z,12.33
2017-12-13T09:24:30.707Z,10.50
2017-12-13T09:26:58.167Z,12.23
2017-12-13T09:29:25.634Z,10.83
2017-12-13T09:31:53.090Z,9.40
2017-12-13T09:34:20.554Z,11.47
2017-12-13T09:36:48.027Z,11.33
2017-12-13T09:39:16.238Z,9.73
2017-12-13T09:41:43.694Z,10.03
2017-12-13T09:44:11.169Z,9.97
2017-12-13T09:46:38.639Z,11.20
2017-12-13T09:49:06.107Z,9.93
2017-12-13T09:51:33.595Z,10.30
2017-12-13T09:54:01.052Z,8.83
2017-12-13T09:56:28.524Z,9.00
2017-12-13T09:58:55.985Z,9.50
2017-12-13T10:01:23.445Z,9.77
2017-12-13T10:03:50.912Z,8.80
2017-12-13T10:06:18.363Z,8.60
2017-12-13T10:08:45.824Z,9.60
2017-12-13T10:11:13.295Z,8.23
2017-12-13T10:13:40.759Z,7.80
2017-12-13T10:16:08.217Z,9.80
2017-12-13T10:18:35.678Z,9.10
2017-12-13T10:21:03.136Z,9.80
2017-12-13T10:23:30.595Z,7.67
2017-12-13T10:25:58.059Z,9.77
2017-12-13T10:28:25.519Z,7.77
2017-12-13T10:30:52.991Z,8.60
2017-12-13T10:33:21.219Z,8.73
2017-12-13T10:35:48.737Z,9.83
2017-12-13T10:38:16.262Z,9.10
2017-12-13T10:40:44.487Z,10.70
2017-12-13T10:43:12.051Z,9.97
2017-12-13T10:45:39.495Z,9.17
2017-12-13T10:48:06.963Z,10.23
2017-12-13T10:50:34.523Z,9.30
2017-12-13T10:53:01.966Z,9.30
2017-12-13T10:55:29.437Z,8.83
2017-12-13T10:57:56.904Z,9.30
2017-12-13T11:00:24.361Z,7.80
2017-12-13T11:02:51.822Z,9.43
2017-12-13T11:05:19.291Z,7.93
2017-12-13T11:07:46.748Z,9.53
2017-12-13T11:10:14.220Z,8.10
2017-12-13T11:12:41.687Z,9.40
2017-12-13T11:15:09.150Z,9.40
2017-12-13T11:17:36.614Z,11.57
2017-12-13T11:20:04.839Z,10.17
2017-12-13T11:22:32.315Z,10.53
2017-12-13T11:24:59.775Z,11.60
2017-12-13T11:27:27.236Z,13.13
2017-12-13T11:29:54.707Z,13.00
2017-12-13T11:32:22.949Z,13.10
2017-12-13T11:34:50.395Z,13.37
2017-12-13T11:37:17.864Z,13.70
2017-12-13T11:39:45.326Z,13.20
2017-12-13T11:42:12.796Z,12.70
2017-12-13T11:44:40.263Z,12.70
2017-12-13T11:47:07.722Z,12.17
2017-12-13T11:49:35.966Z,12.83
2017-12-13T11:52:03.430Z,15.10
2017-12-13T11:54:36.632Z,11.13
2017-12-13T11:57:04.101Z,11.80
2017-12-13T11:59:31.555Z,11.90
2017-12-13T12:01:59.006Z,12.17
2017-12-13T12:04:26.471Z,12.57
2017-12-13T12:06:54.700Z,14.20
2017-12-13T12:09:22.151Z,13.73
2017-12-13T12:11:49.634Z,15.53
2017-12-13T12:14:17.090Z,15.20
2017-12-13T12:16:44.559Z,14.30
2017-12-13T12:19:12.026Z,12.53
2017-12-13T12:21:39.482Z,11.57
2017-12-13T12:24:06.970Z,10.73
2017-12-13T12:26:34.448Z,12.13
2017-12-13T12:29:01.908Z,12.63
2017-12-13T12:31:29.378Z,12.10
2017-12-13T12:33:56.852Z,11.63
2017-12-13T12:36:24.311Z,11.87
2017-12-13T12:38:51.778Z,11.33
2017-12-13T12:41:19.239Z,13.17
2017-12-13T12:43:46.690Z,12.30
2017-12-13T12:46:14.155Z,11.33
2017-12-13T12:48:42.380Z,12.43
2017-12-13T12:51:09.839Z,12.23
2017-12-13T12:53:37.307Z,12.40
2017-12-13T12:56:04.775Z,11.37
2017-12-13T12:58:32.237Z,10.90
2017-12-13T13:00:59.700Z,10.50
2017-12-13T13:03:27.163Z,10.23
2017-12-13T13:05:54.619Z,12.30
2017-12-13T13:08:22.076Z,12.07
2017-12-13T13:10:49.539Z,11.80
2017-12-13T13:13:17.759Z,11.50
2017-12-13T13:15:45.215Z,10.50
2017-12-13T13:18:12.686Z,10.57
2017-12-13T13:20:40.144Z,8.53
2017-12-13T13:23:07.681Z,8.40
2017-12-13T13:25:35.123Z,9.33
2017-12-13T13:28:02.603Z,6.80
2017-12-13T13:30:30.063Z,6.17
2017-12-13T13:32:57.511Z,6.77
2017-12-13T13:35:24.972Z,5.70
2017-12-13T13:37:52.435Z,5.60
2017-12-13T13:40:19.886Z,5.60
2017-12-13T13:42:47.347Z,6.40
2017-12-13T13:45:14.825Z,6.57
2017-12-13T13:47:42.283Z,5.73
2017-12-13T13:50:09.734Z,6.20
2017-12-13T13:52:37.212Z,4.87
2017-12-13T13:55:04.671Z,5.50
2017-12-13T13:57:32.120Z,4.33
2017-12-13T13:59:59.591Z,5.00
2017-12-13T14:02:27.814Z,3.87
2017-12-13T14:04:55.276Z,4.50
2017-12-13T14:07:22.727Z,4.67
2017-12-13T14:09:50.276Z,4.73
2017-12-13T14:12:17.739Z,4.17
2017-12-13T14:14:45.191Z,4.60
2017-12-13T14:17:12.644Z,5.30
2017-12-13T14:19:40.107Z,5.00
2017-12-13T14:22:07.572Z,4.27
2017-12-13T14:24:35.034Z,4.20
2017-12-13T14:27:02.498Z,5.70
2017-12-13T14:29:29.955Z,5.43
2017-12-13T14:31:57.416Z,5.90
2017-12-13T14:34:24.887Z,5.20
2017-12-13T14:36:52.351Z,5.43
2017-12-13T14:39:19.811Z,7.07
2017-12-13T14:41:47.279Z,5.57
2017-12-13T14:44:15.558Z,7.93
2017-12-13T14:46:43.778Z,9.70
2017-12-13T14:49:11.251Z,9.23
2017-12-13T14:51:38.707Z,9.70
2017-12-13T14:54:06.159Z,11.30
2017-12-13T14:56:33.651Z,9.73
2017-12-13T14:59:01.114Z,10.47
2017-12-13T15:01:29.335Z,11.20
2017-12-13T15:03:56.807Z,11.43
2017-12-13T15:06:24.279Z,10.93
2017-12-13T15:08:51.735Z,10.07
2017-12-13T15:11:19.195Z,10.60
2017-12-13T15:13:46.660Z,9.30
2017-12-13T15:16:14.114Z,9.10
2017-12-13T15:18:41.568Z,7.70
2017-12-13T15:21:09.094Z,8.60
2017-12-13T15:23:36.552Z,7.63
2017-12-13T15:26:04.002Z,7.57
2017-12-13T15:28:31.463Z,7.30
2017-12-13T15:30:58.914Z,7.27
2017-12-13T15:33:26.363Z,6.67
2017-12-13T15:35:53.882Z,7.63
2017-12-13T15:38:21.347Z,6.47
2017-12-13T15:40:49.559Z,7.73
2017-12-13T15:43:17.011Z,6.13
2017-12-13T15:45:44.482Z,6.50
2017-12-13T15:48:11.934Z,8.07
2017-12-13T15:50:39.392Z,6.37
2017-12-13T15:53:06.854Z,6.77
2017-12-13T15:55:34.306Z,7.60
2017-12-13T15:58:01.766Z,6.40
2017-12-13T16:00:29.233Z,6.97
2017-12-13T16:02:56.682Z,7.77
2017-12-13T16:05:24.143Z,8.07
2017-12-13T16:07:51.593Z,6.97
2017-12-13T16:10:19.051Z,7.83
2017-12-13T16:12:46.520Z,6.70
2017-12-13T16:15:14.071Z,6.17
2017-12-13T16:17:41.524Z,6.83
2017-12-13T16:20:08.986Z,7.10
2017-12-13T16:22:36.443Z,7.47
2017-12-13T16:25:03.896Z,7.47
2017-12-13T16:27:31.354Z,7.43
2017-12-13T16:29:58.812Z,8.17
2017-12-13T16:32:26.263Z,7.67
2017-12-13T16:34:53.754Z,10.07
2017-12-13T16:37:21.216Z,9.47
2017-12-13T16:39:49.435Z,9.70
2017-12-13T16:42:16.915Z,10.80
2017-12-13T16:44:44.367Z,11.00
2017-12-13T16:47:11.826Z,11.90
2017-12-13T16:49:39.295Z,10.90
2017-12-13T16:52:06.765Z,11.57
2017-12-13T16:54:34.220Z,16.43
2017-12-13T16:57:01.696Z,17.00
2017-12-13T16:59:29.926Z,17.17
2017-12-13T17:01:57.383Z,18.60
2017-12-13T17:04:24.855Z,18.03
2017-12-13T17:06:52.312Z,19.13
2017-12-13T17:09:19.771Z,21.03
2017-12-13T17:11:47.251Z,20.87
2017-12-13T17:14:15.513Z,22.00
2017-12-13T17:16:43.772Z,19.47
2017-12-13T17:19:11.231Z,21.40
2017-12-13T17:21:38.692Z,21.50
2017-12-13T17:24:06.142Z,22.23
2017-12-13T17:26:33.635Z,20.77
2017-12-13T17:29:01.865Z,22.83
2017-12-13T17:31:29.320Z,21.70
2017-12-13T17:33:56.787Z,20.23
2017-12-13T17:36:24.251Z,23.03
2017-12-13T17:38:51.715Z,25.90
2017-12-13T17:41:19.185Z,23.17
2017-12-13T17:43:47.399Z,22.03
2017-12-13T17:46:14.880Z,22.13
2017-12-13T17:48:42.339Z,23.23
2017-12-13T17:51:09.832Z,25.40
2017-12-13T17:53:38.067Z,26.53
2017-12-13T17:56:05.527Z,25.33
2017-12-13T17:58:32.979Z,25.87
2017-12-13T18:01:00.453Z,25.67
2017-12-13T18:03:27.951Z,30.27
2017-12-13T18:05:55.408Z,29.73
2017-12-13T18:08:22.888Z,26.60
2017-12-13T18:10:50.348Z,27.83
2017-12-13T18:13:17.800Z,28.30
2017-12-13T18:15:45.271Z,27.57
2017-12-13T18:18:12.730Z,25.37
2017-12-13T18:20:40.203Z,25.13
2017-12-13T18:23:07.673Z,24.07
2017-12-13T18:25:35.124Z,23.00
2017-12-13T18:28:02.583Z,17.90
2017-12-13T18:30:30.042Z,18.40
2017-12-13T18:32:57.506Z,17.80
2017-12-13T18:35:25.743Z,14.80
2017-12-13T18:37:53.206Z,12.50
2017-12-13T18:40:20.662Z,9.60
2017-12-13T18:42:48.118Z,10.03
2017-12-13T18:45:15.583Z,8.33
2017-12-13T18:47:43.056Z,8.63
2017-12-13T18:50:10.508Z,7.47
2017-12-13T18:52:37.967Z,7.60
2017-12-13T18:55:05.436Z,7.47
2017-12-13T18:57:33.683Z,6.43
2017-12-13T19:00:01.132Z,6.30
2017-12-13T19:02:28.604Z,5.10
2017-12-13T19:04:56.051Z,4.07
2017-12-13T19:07:23.499Z,4.67
2017-12-13T19:09:50.963Z,4.20
2017-12-13T19:12:18.417Z,3.67
2017-12-13T19:14:45.873Z,2.77
2017-12-13T19:17:13.336Z,2.47
2017-12-13T19:19:40.784Z,2.33
2017-12-13T19:22:08.240Z,1.70
2017-12-13T19:24:35.696Z,1.43
2017-12-13T19:27:03.155Z,1.30
2017-12-13T19:29:30.607Z,1.23
2017-12-13T19:31:58.062Z,2.53
2017-12-13T19:34:25.520Z,1.80
2017-12-13T19:36:52.971Z,2.00
2017-12-13T19:39:20.434Z,1.50
2017-12-13T19:41:47.887Z,1.13
2017-12-13T19:44:15.343Z,1.17
2017-12-13T19:46:42.803Z,1.37
2017-12-13T19:49:10.283Z,1.10
2017-12-13T19:51:37.727Z,1.00
2017-12-13T19:54:05.186Z,1.10
2017-12-13T19:56:32.662Z,1.20
2017-12-13T19:59:00.161Z,1.67
2017-12-13T20:01:27.619Z,1.17
2017-12-13T20:03:55.107Z,1.27
2017-12-13T20:06:22.558Z,1.33
2017-12-13T20:08:50.016Z,1.17
2017-12-13T20:11:17.480Z,1.10
2017-12-13T20:13:44.936Z,1.13
2017-12-13T20:16:12.404Z,1.33
2017-12-13T20:18:39.862Z,1.40
2017-12-13T20:21:07.315Z,1.93
2017-12-13T20:23:34.779Z,2.17
2017-12-13T20:26:02.243Z,2.50
2017-12-13T20:28:29.696Z,2.07
2017-12-13T20:30:57.162Z,3.00
2017-12-13T20:33:25.386Z,2.00
2017-12-13T20:35:52.859Z,2.17
2017-12-13T20:38:20.315Z,1.83
2017-12-13T20:40:47.767Z,1.90
2017-12-13T20:43:15.232Z,4.03
2017-12-13T20:45:42.683Z,2.93
2017-12-13T20:48:10.141Z,2.17
2017-12-13T20:50:37.602Z,2.97
2017-12-13T20:53:05.052Z,2.63
2017-12-13T20:55:32.515Z,2.10
2017-12-13T20:57:59.963Z,2.10
2017-12-13T21:00:27.416Z,1.77
2017-12-13T21:02:54.885Z,1.80
2017-12-13T21:05:22.323Z,1.80
2017-12-13T21:07:49.780Z,1.90
2017-12-13T21:10:17.239Z,2.10
2017-12-13T21:12:44.706Z,4.00
2017-12-13T21:15:12.159Z,2.13
2017-12-13T21:17:39.625Z,2.60
2017-12-13T21:20:07.075Z,2.90
2017-12-13T21:22:34.530Z,2.80
2017-12-13T21:25:01.999Z,2.33
2017-12-13T21:27:29.460Z,2.80
2017-12-13T21:29:56.919Z,1.77
2017-12-13T21:32:24.379Z,2.80
2017-12-13T21:34:51.828Z,2.23
2017-12-13T21:37:19.281Z,2.00
2017-12-13T21:39:46.743Z,3.00
2017-12-13T21:42:14.199Z,2.87
2017-12-13T21:44:41.663Z,1.90
2017-12-13T21:47:09.123Z,2.40
2017-12-13T21:49:36.583Z,2.33
2017-12-13T21:52:04.827Z,3.43
2017-12-13T21:54:32.292Z,2.37
2017-12-13T21:56:59.743Z,2.90
2017-12-13T21:59:27.212Z,2.50
2017-12-13T22:01:54.675Z,2.43
2017-12-13T22:04:22.127Z,1.73
2017-12-13T22:06:49.591Z,2.27
2017-12-13T22:09:17.042Z,3.07
2017-12-13T22:11:44.504Z,2.10
2017-12-13T22:14:11.965Z,2.40
2017-12-13T22:16:39.412Z,2.30
2017-12-13T22:19:06.880Z,2.17
2017-12-13T22:21:34.338Z,2.83
2017-12-13T22:24:01.796Z,2.17
2017-12-13T22:26:29.256Z,2.17
2017-12-13T22:28:57.485Z,2.27
2017-12-13T22:31:24.926Z,2.33
2017-12-13T22:33:52.390Z,1.67
2017-12-13T22:36:19.847Z,2.03
2017-12-13T22:38:47.302Z,1.47
2017-12-13T22:41:14.767Z,2.07
2017-12-13T22:43:42.224Z,3.13
2017-12-13T22:46:09.691Z,2.80
2017-12-13T22:48:37.143Z,2.63
2017-12-13T22:51:04.600Z,2.00
2017-12-13T22:53:32.059Z,2.80
2017-12-13T22:55:59.518Z,2.70
2017-12-13T22:58:26.991Z,2.40
2017-12-13T23:00:54.447Z,2.60
2017-12-13T23:03:21.916Z,2.43
2017-12-13T23:05:49.383Z,2.30
2017-12-13T23:08:17.594Z,2.50
2017-12-13T23:10:45.046Z,3.00
2017-12-13T23:13:12.506Z,2.00
2017-12-13T23:15:39.967Z,2.30
2017-12-13T23:18:07.442Z,2.20
2017-12-13T23:20:34.891Z,1.73
2017-12-13T23:23:02.355Z,1.73
2017-12-13T23:25:29.815Z,2.57
2017-12-13T23:27:57.274Z,1.90
2017-12-13T23:30:24.743Z,2.13
2017-12-13T23:32:52.198Z,2.53
2017-12-13T23:35:19.651Z,1.27
2017-12-13T23:37:47.115Z,1.93
2017-12-13T23:40:14.567Z,1.67
2017-12-13T23:42:42.023Z,2.33
2017-12-13T23:45:09.487Z,2.33
2017-12-13T23:47:36.939Z,1.43
2017-12-13T23:50:04.391Z,1.80
2017-12-13T23:52:31.860Z,2.00
2017-12-13T23:54:59.306Z,1.87
2017-12-13T23:57:26.762Z,1.50
2017-12-13T23:59:54.229Z,2.83
